sensor_id;sensor_type;location;lat;lon;timestamp;temperature;humidity
25753;DHT22;13600;50.816;4.416;2023-04-15T00:02:14;12.60;99.90
25753;DHT22;13600;50.816;4.416;2023-04-15T00:04:40;12.80;99.90
25753;DHT22;13600;50.816;4.416;2023-04-15T00:07:05;12.90;99.90
25753;DHT22;13600;50.816;4.416;2023-04-15T00:09:31;12.90;99.90
25753;DHT22;13600;50.816;4.416;2023-04-15T00:11:57;13.00;99.90
25753;DHT22;13600;50.816;4.416;2023-04-15T00:14:22;13.10;99.90
25753;DHT22;13600;50.816;4.416;2023-04-15T00:16:48;13.20;99.90
25753;DHT22;13600;50.816;4.416;2023-04-15T00:19:20;13.10;99.90
25753;DHT22;13600;50.816;4.416;2023-04-15T00:21:46;13.10;99.90
25753;DHT22;13600;50.816;4.416;2023-04-15T00:24:12;13.10;99.90
25753;DHT22;13600;50.816;4.416;2023-04-15T00:26:38;12.90;99.90
25753;DHT22;13600;50.816;4.416;2023-04-15T00:29:03;12.80;99.90
25753;DHT22;13600;50.816;4.416;2023-04-15T00:31:30;12.60;99.90
25753;DHT22;13600;50.816;4.416;2023-04-15T00:33:55;12.60;99.90
25753;DHT22;13600;50.816;4.416;2023-04-15T00:36:22;12.60;99.90
25753;DHT22;13600;50.816;4.416;2023-04-15T00:38:47;12.70;99.90
25753;DHT22;13600;50.816;4.416;2023-04-15T00:41:13;12.70;99.90
25753;DHT22;13600;50.816;4.416;2023-04-15T00:43:40;12.80;99.90
25753;DHT22;13600;50.816;4.416;2023-04-15T00:46:05;13.00;99.90
25753;DHT22;13600;50.816;4.416;2023-04-15T00:48:31;13.30;99.90
25753;DHT22;13600;50.816;4.416;2023-04-15T00:50:57;13.30;99.90
25753;DHT22;13600;50.816;4.416;2023-04-15T00:53:23;13.40;99.90
25753;DHT22;13600;50.816;4.416;2023-04-15T00:55:49;13.40;99.90
25753;DHT22;13600;50.816;4.416;2023-04-15T00:58:15;13.40;99.90
25753;DHT22;13600;50.816;4.416;2023-04-15T01:00:41;13.20;99.90
25753;DHT22;13600;50.816;4.416;2023-04-15T01:03:07;13.30;99.90
25753;DHT22;13600;50.816;4.416;2023-04-15T01:05:33;13.10;99.90
25753;DHT22;13600;50.816;4.416;2023-04-15T01:07:59;13.10;99.90
25753;DHT22;13600;50.816;4.416;2023-04-15T01:10:26;13.30;99.90
25753;DHT22;13600;50.816;4.416;2023-04-15T01:12:52;13.40;99.90
25753;DHT22;13600;50.816;4.416;2023-04-15T01:15:18;13.30;99.90
25753;DHT22;13600;50.816;4.416;2023-04-15T01:17:44;13.00;99.90
25753;DHT22;13600;50.816;4.416;2023-04-15T01:20:10;12.70;99.90
25753;DHT22;13600;50.816;4.416;2023-04-15T01:22:36;12.80;99.90
25753;DHT22;13600;50.816;4.416;2023-04-15T01:25:07;12.60;99.90
25753;DHT22;13600;50.816;4.416;2023-04-15T01:27:33;12.40;99.90
25753;DHT22;13600;50.816;4.416;2023-04-15T01:30:00;12.30;99.90
25753;DHT22;13600;50.816;4.416;2023-04-15T01:32:25;12.20;99.90
25753;DHT22;13600;50.816;4.416;2023-04-15T01:34:51;12.20;99.90
25753;DHT22;13600;50.816;4.416;2023-04-15T01:37:16;12.20;99.90
25753;DHT22;13600;50.816;4.416;2023-04-15T01:39:42;12.20;99.90
25753;DHT22;13600;50.816;4.416;2023-04-15T01:42:08;12.30;99.90
25753;DHT22;13600;50.816;4.416;2023-04-15T01:44:34;12.40;99.90
25753;DHT22;13600;50.816;4.416;2023-04-15T01:47:00;12.30;99.90
25753;DHT22;13600;50.816;4.416;2023-04-15T01:49:25;12.30;99.90
25753;DHT22;13600;50.816;4.416;2023-04-15T01:51:51;12.30;99.90
25753;DHT22;13600;50.816;4.416;2023-04-15T01:54:18;12.40;99.90
25753;DHT22;13600;50.816;4.416;2023-04-15T01:56:43;12.30;99.90
25753;DHT22;13600;50.816;4.416;2023-04-15T01:59:09;12.50;99.90
25753;DHT22;13600;50.816;4.416;2023-04-15T02:01:35;12.80;99.90
25753;DHT22;13600;50.816;4.416;2023-04-15T02:04:00;13.10;99.90
25753;DHT22;13600;50.816;4.416;2023-04-15T02:06:26;13.10;99.90
25753;DHT22;13600;50.816;4.416;2023-04-15T02:08:53;12.70;99.90
25753;DHT22;13600;50.816;4.416;2023-04-15T02:11:19;12.60;99.90
25753;DHT22;13600;50.816;4.416;2023-04-15T02:13:44;12.50;99.90
25753;DHT22;13600;50.816;4.416;2023-04-15T02:16:17;12.50;99.90
25753;DHT22;13600;50.816;4.416;2023-04-15T02:18:43;12.50;99.90
25753;DHT22;13600;50.816;4.416;2023-04-15T02:21:09;12.70;99.90
25753;DHT22;13600;50.816;4.416;2023-04-15T02:23:34;12.70;99.90
25753;DHT22;13600;50.816;4.416;2023-04-15T02:26:00;12.60;99.90
25753;DHT22;13600;50.816;4.416;2023-04-15T02:28:25;12.50;99.90
25753;DHT22;13600;50.816;4.416;2023-04-15T02:30:51;12.50;99.90
25753;DHT22;13600;50.816;4.416;2023-04-15T02:33:17;12.50;99.90
25753;DHT22;13600;50.816;4.416;2023-04-15T02:35:43;12.70;99.90
25753;DHT22;13600;50.816;4.416;2023-04-15T02:38:10;12.60;99.90
25753;DHT22;13600;50.816;4.416;2023-04-15T02:40:35;12.60;99.90
25753;DHT22;13600;50.816;4.416;2023-04-15T02:43:01;12.60;99.90
25753;DHT22;13600;50.816;4.416;2023-04-15T02:45:27;12.40;99.90
25753;DHT22;13600;50.816;4.416;2023-04-15T02:47:53;12.40;99.90
25753;DHT22;13600;50.816;4.416;2023-04-15T02:50:19;12.70;99.90
25753;DHT22;13600;50.816;4.416;2023-04-15T02:52:45;12.90;99.90
25753;DHT22;13600;50.816;4.416;2023-04-15T02:55:11;13.00;99.90
25753;DHT22;13600;50.816;4.416;2023-04-15T02:57:37;12.90;99.90
25753;DHT22;13600;50.816;4.416;2023-04-15T03:00:04;12.70;99.90
25753;DHT22;13600;50.816;4.416;2023-04-15T03:02:33;12.70;99.90
25753;DHT22;13600;50.816;4.416;2023-04-15T03:04:59;12.90;99.90
25753;DHT22;13600;50.816;4.416;2023-04-15T03:07:25;12.90;99.90
25753;DHT22;13600;50.816;4.416;2023-04-15T03:09:51;12.80;99.90
25753;DHT22;13600;50.816;4.416;2023-04-15T03:12:16;12.50;99.90
25753;DHT22;13600;50.816;4.416;2023-04-15T03:14:42;12.60;99.90
25753;DHT22;13600;50.816;4.416;2023-04-15T03:17:08;12.90;99.90
25753;DHT22;13600;50.816;4.416;2023-04-15T03:19:33;12.90;99.90
25753;DHT22;13600;50.816;4.416;2023-04-15T03:21:59;12.80;99.90
25753;DHT22;13600;50.816;4.416;2023-04-15T03:24:24;12.50;99.90
25753;DHT22;13600;50.816;4.416;2023-04-15T03:26:50;12.70;99.90
25753;DHT22;13600;50.816;4.416;2023-04-15T03:29:16;12.70;99.90
25753;DHT22;13600;50.816;4.416;2023-04-15T03:31:41;12.50;99.90
25753;DHT22;13600;50.816;4.416;2023-04-15T03:34:07;12.30;99.90
25753;DHT22;13600;50.816;4.416;2023-04-15T03:36:32;12.10;99.90
25753;DHT22;13600;50.816;4.416;2023-04-15T03:38:58;12.20;99.90
25753;DHT22;13600;50.816;4.416;2023-04-15T03:41:23;12.10;99.90
25753;DHT22;13600;50.816;4.416;2023-04-15T03:43:50;12.20;99.90
25753;DHT22;13600;50.816;4.416;2023-04-15T03:46:19;12.10;99.90
25753;DHT22;13600;50.816;4.416;2023-04-15T03:48:45;12.10;99.90
25753;DHT22;13600;50.816;4.416;2023-04-15T03:51:11;12.10;99.90
25753;DHT22;13600;50.816;4.416;2023-04-15T03:53:36;12.10;99.90
25753;DHT22;13600;50.816;4.416;2023-04-15T03:56:02;12.10;99.90
25753;DHT22;13600;50.816;4.416;2023-04-15T03:58:27;12.20;99.90
25753;DHT22;13600;50.816;4.416;2023-04-15T04:00:53;12.30;99.90
25753;DHT22;13600;50.816;4.416;2023-04-15T04:03:19;12.10;99.90
25753;DHT22;13600;50.816;4.416;2023-04-15T04:05:45;11.80;99.90
25753;DHT22;13600;50.816;4.416;2023-04-15T04:08:10;11.80;99.90
25753;DHT22;13600;50.816;4.416;2023-04-15T04:10:38;11.70;99.90
25753;DHT22;13600;50.816;4.416;2023-04-15T04:13:04;11.70;99.90
25753;DHT22;13600;50.816;4.416;2023-04-15T04:15:29;11.80;99.90
25753;DHT22;13600;50.816;4.416;2023-04-15T04:17:55;11.90;99.90
25753;DHT22;13600;50.816;4.416;2023-04-15T04:20:21;11.90;99.90
25753;DHT22;13600;50.816;4.416;2023-04-15T04:22:46;12.10;99.90
25753;DHT22;13600;50.816;4.416;2023-04-15T04:25:12;12.00;99.90
25753;DHT22;13600;50.816;4.416;2023-04-15T04:27:38;12.00;99.90
25753;DHT22;13600;50.816;4.416;2023-04-15T04:30:04;11.90;99.90
25753;DHT22;13600;50.816;4.416;2023-04-15T04:32:30;12.10;99.90
25753;DHT22;13600;50.816;4.416;2023-04-15T04:34:56;12.10;99.90
25753;DHT22;13600;50.816;4.416;2023-04-15T04:37:22;12.00;99.90
25753;DHT22;13600;50.816;4.416;2023-04-15T04:39:47;11.90;99.90
25753;DHT22;13600;50.816;4.416;2023-04-15T04:42:13;11.90;99.90
25753;DHT22;13600;50.816;4.416;2023-04-15T04:44:38;11.80;99.90
25753;DHT22;13600;50.816;4.416;2023-04-15T04:47:04;11.80;99.90
25753;DHT22;13600;50.816;4.416;2023-04-15T04:49:32;11.70;99.90
25753;DHT22;13600;50.816;4.416;2023-04-15T04:51:57;11.80;99.90
25753;DHT22;13600;50.816;4.416;2023-04-15T04:54:23;12.10;99.90
25753;DHT22;13600;50.816;4.416;2023-04-15T04:56:49;12.20;99.90
25753;DHT22;13600;50.816;4.416;2023-04-15T04:59:14;12.30;99.90
25753;DHT22;13600;50.816;4.416;2023-04-15T05:01:40;12.00;99.90
25753;DHT22;13600;50.816;4.416;2023-04-15T05:04:06;11.90;99.90
25753;DHT22;13600;50.816;4.416;2023-04-15T05:06:33;11.90;99.90
25753;DHT22;13600;50.816;4.416;2023-04-15T05:09:00;11.80;99.90
25753;DHT22;13600;50.816;4.416;2023-04-15T05:11:26;11.90;99.90
25753;DHT22;13600;50.816;4.416;2023-04-15T05:13:52;11.90;99.90
25753;DHT22;13600;50.816;4.416;2023-04-15T05:16:18;12.20;99.90
25753;DHT22;13600;50.816;4.416;2023-04-15T05:18:44;12.20;99.90
25753;DHT22;13600;50.816;4.416;2023-04-15T05:21:11;12.20;99.90
25753;DHT22;13600;50.816;4.416;2023-04-15T05:23:38;12.20;99.90
25753;DHT22;13600;50.816;4.416;2023-04-15T05:26:04;12.20;99.90
25753;DHT22;13600;50.816;4.416;2023-04-15T05:28:29;12.00;99.90
25753;DHT22;13600;50.816;4.416;2023-04-15T05:30:55;12.20;99.90
25753;DHT22;13600;50.816;4.416;2023-04-15T05:33:20;12.50;99.90
25753;DHT22;13600;50.816;4.416;2023-04-15T05:35:46;12.80;99.90
25753;DHT22;13600;50.816;4.416;2023-04-15T05:38:12;12.80;99.90
25753;DHT22;13600;50.816;4.416;2023-04-15T05:40:37;12.70;99.90
25753;DHT22;13600;50.816;4.416;2023-04-15T05:43:03;12.70;99.90
25753;DHT22;13600;50.816;4.416;2023-04-15T05:45:28;12.70;99.90
25753;DHT22;13600;50.816;4.416;2023-04-15T05:47:54;12.30;99.90
25753;DHT22;13600;50.816;4.416;2023-04-15T05:50:20;12.20;99.90
25753;DHT22;13600;50.816;4.416;2023-04-15T05:52:45;12.30;99.90
25753;DHT22;13600;50.816;4.416;2023-04-15T05:55:11;12.10;99.90
25753;DHT22;13600;50.816;4.416;2023-04-15T05:57:37;12.10;99.90
25753;DHT22;13600;50.816;4.416;2023-04-15T06:00:03;12.20;99.90
25753;DHT22;13600;50.816;4.416;2023-04-15T06:02:29;12.20;99.90
25753;DHT22;13600;50.816;4.416;2023-04-15T06:04:56;12.20;99.90
25753;DHT22;13600;50.816;4.416;2023-04-15T06:07:22;12.30;99.90
25753;DHT22;13600;50.816;4.416;2023-04-15T06:09:47;12.30;99.90
25753;DHT22;13600;50.816;4.416;2023-04-15T06:12:14;12.20;99.90
25753;DHT22;13600;50.816;4.416;2023-04-15T06:14:40;12.20;99.90
25753;DHT22;13600;50.816;4.416;2023-04-15T06:17:05;12.20;99.90
25753;DHT22;13600;50.816;4.416;2023-04-15T06:19:32;11.90;99.90
25753;DHT22;13600;50.816;4.416;2023-04-15T06:21:57;12.00;99.90
25753;DHT22;13600;50.816;4.416;2023-04-15T06:24:23;11.80;99.90
25753;DHT22;13600;50.816;4.416;2023-04-15T06:26:48;11.90;99.90
25753;DHT22;13600;50.816;4.416;2023-04-15T06:29:14;11.90;99.90
25753;DHT22;13600;50.816;4.416;2023-04-15T06:31:40;12.00;99.90
25753;DHT22;13600;50.816;4.416;2023-04-15T06:34:06;12.10;99.90
25753;DHT22;13600;50.816;4.416;2023-04-15T06:36:31;12.30;99.90
25753;DHT22;13600;50.816;4.416;2023-04-15T06:38:57;12.50;99.90
25753;DHT22;13600;50.816;4.416;2023-04-15T06:41:23;12.90;99.90
25753;DHT22;13600;50.816;4.416;2023-04-15T06:43:48;12.80;99.90
25753;DHT22;13600;50.816;4.416;2023-04-15T06:46:14;12.70;99.90
25753;DHT22;13600;50.816;4.416;2023-04-15T06:48:41;12.90;99.90
25753;DHT22;13600;50.816;4.416;2023-04-15T06:51:06;12.80;99.90
25753;DHT22;13600;50.816;4.416;2023-04-15T06:53:33;12.90;99.90
25753;DHT22;13600;50.816;4.416;2023-04-15T06:56:00;12.70;99.90
25753;DHT22;13600;50.816;4.416;2023-04-15T06:58:26;12.80;99.90
25753;DHT22;13600;50.816;4.416;2023-04-15T07:00:51;13.00;99.90
25753;DHT22;13600;50.816;4.416;2023-04-15T07:03:17;13.30;99.90
25753;DHT22;13600;50.816;4.416;2023-04-15T07:05:42;13.80;99.90
25753;DHT22;13600;50.816;4.416;2023-04-15T07:08:08;14.40;99.90
25753;DHT22;13600;50.816;4.416;2023-04-15T07:10:33;14.90;99.90
25753;DHT22;13600;50.816;4.416;2023-04-15T07:12:59;15.40;99.90
25753;DHT22;13600;50.816;4.416;2023-04-15T07:15:26;15.40;99.90
25753;DHT22;13600;50.816;4.416;2023-04-15T07:17:51;15.80;99.90
25753;DHT22;13600;50.816;4.416;2023-04-15T07:20:17;15.80;99.90
25753;DHT22;13600;50.816;4.416;2023-04-15T07:22:42;16.20;99.90
25753;DHT22;13600;50.816;4.416;2023-04-15T07:25:08;17.10;99.90
25753;DHT22;13600;50.816;4.416;2023-04-15T07:27:34;17.50;99.90
25753;DHT22;13600;50.816;4.416;2023-04-15T07:29:59;18.40;99.90
25753;DHT22;13600;50.816;4.416;2023-04-15T07:32:25;19.50;99.90
25753;DHT22;13600;50.816;4.416;2023-04-15T07:34:50;19.70;99.90
25753;DHT22;13600;50.816;4.416;2023-04-15T07:37:16;20.10;99.90
25753;DHT22;13600;50.816;4.416;2023-04-15T07:39:41;19.90;99.90
25753;DHT22;13600;50.816;4.416;2023-04-15T07:42:08;19.80;99.90
25753;DHT22;13600;50.816;4.416;2023-04-15T07:44:33;19.80;99.90
25753;DHT22;13600;50.816;4.416;2023-04-15T07:46:59;20.50;99.90
25753;DHT22;13600;50.816;4.416;2023-04-15T07:49:25;20.80;99.90
25753;DHT22;13600;50.816;4.416;2023-04-15T07:51:50;20.90;99.90
25753;DHT22;13600;50.816;4.416;2023-04-15T07:54:17;20.80;99.70
25753;DHT22;13600;50.816;4.416;2023-04-15T07:56:43;21.10;99.70
25753;DHT22;13600;50.816;4.416;2023-04-15T07:59:10;21.00;99.60
25753;DHT22;13600;50.816;4.416;2023-04-15T08:01:37;20.40;99.50
25753;DHT22;13600;50.816;4.416;2023-04-15T08:04:03;20.20;99.90
25753;DHT22;13600;50.816;4.416;2023-04-15T08:06:29;19.40;99.90
25753;DHT22;13600;50.816;4.416;2023-04-15T08:08:59;19.00;99.90
25753;DHT22;13600;50.816;4.416;2023-04-15T08:11:25;19.00;99.90
25753;DHT22;13600;50.816;4.416;2023-04-15T08:13:52;19.70;99.90
25753;DHT22;13600;50.816;4.416;2023-04-15T08:16:21;18.90;99.90
25753;DHT22;13600;50.816;4.416;2023-04-15T08:18:48;18.80;99.90
25753;DHT22;13600;50.816;4.416;2023-04-15T08:21:13;19.40;99.90
25753;DHT22;13600;50.816;4.416;2023-04-15T08:23:39;19.30;99.90
25753;DHT22;13600;50.816;4.416;2023-04-15T08:26:05;19.30;99.90
25753;DHT22;13600;50.816;4.416;2023-04-15T08:28:30;19.20;99.90
25753;DHT22;13600;50.816;4.416;2023-04-15T08:30:56;18.30;99.90
25753;DHT22;13600;50.816;4.416;2023-04-15T08:33:21;17.70;99.90
25753;DHT22;13600;50.816;4.416;2023-04-15T08:35:47;17.90;99.90
25753;DHT22;13600;50.816;4.416;2023-04-15T08:38:13;17.70;99.90
25753;DHT22;13600;50.816;4.416;2023-04-15T08:40:42;18.00;99.90
25753;DHT22;13600;50.816;4.416;2023-04-15T08:43:11;18.30;99.90
25753;DHT22;13600;50.816;4.416;2023-04-15T08:45:38;17.90;99.90
25753;DHT22;13600;50.816;4.416;2023-04-15T08:48:04;17.80;99.90
25753;DHT22;13600;50.816;4.416;2023-04-15T08:50:30;18.30;99.90
25753;DHT22;13600;50.816;4.416;2023-04-15T08:52:57;19.00;99.90
25753;DHT22;13600;50.816;4.416;2023-04-15T08:55:24;19.90;99.90
25753;DHT22;13600;50.816;4.416;2023-04-15T08:57:53;20.00;99.90
25753;DHT22;13600;50.816;4.416;2023-04-15T09:00:18;21.20;98.80
25753;DHT22;13600;50.816;4.416;2023-04-15T09:02:44;22.50;96.10
25753;DHT22;13600;50.816;4.416;2023-04-15T09:05:09;23.90;92.60
25753;DHT22;13600;50.816;4.416;2023-04-15T09:07:35;24.50;90.30
25753;DHT22;13600;50.816;4.416;2023-04-15T09:10:02;26.50;84.60
25753;DHT22;13600;50.816;4.416;2023-04-15T09:12:28;28.00;73.20
25753;DHT22;13600;50.816;4.416;2023-04-15T09:14:55;28.90;71.60
25753;DHT22;13600;50.816;4.416;2023-04-15T09:17:21;29.80;67.40
25753;DHT22;13600;50.816;4.416;2023-04-15T09:20:06;30.90;62.80
25753;DHT22;13600;50.816;4.416;2023-04-15T09:22:31;31.00;61.10
25753;DHT22;13600;50.816;4.416;2023-04-15T09:24:57;30.20;59.60
25753;DHT22;13600;50.816;4.416;2023-04-15T09:27:22;29.40;59.10
25753;DHT22;13600;50.816;4.416;2023-04-15T09:29:52;28.60;59.60
25753;DHT22;13600;50.816;4.416;2023-04-15T09:32:17;29.00;59.50
25753;DHT22;13600;50.816;4.416;2023-04-15T09:34:45;27.90;57.40
25753;DHT22;13600;50.816;4.416;2023-04-15T09:37:11;27.60;57.70
25753;DHT22;13600;50.816;4.416;2023-04-15T09:39:48;28.30;57.50
25753;DHT22;13600;50.816;4.416;2023-04-15T09:42:14;27.80;56.90
25753;DHT22;13600;50.816;4.416;2023-04-15T09:44:41;27.80;56.20
25753;DHT22;13600;50.816;4.416;2023-04-15T09:47:07;28.00;57.00
25753;DHT22;13600;50.816;4.416;2023-04-15T09:49:32;28.90;55.90
25753;DHT22;13600;50.816;4.416;2023-04-15T09:51:59;30.60;55.50
25753;DHT22;13600;50.816;4.416;2023-04-15T09:54:31;31.50;52.60
25753;DHT22;13600;50.816;4.416;2023-04-15T09:56:58;32.20;52.40
25753;DHT22;13600;50.816;4.416;2023-04-15T09:59:29;32.30;49.70
25753;DHT22;13600;50.816;4.416;2023-04-15T10:01:54;33.10;49.90
25753;DHT22;13600;50.816;4.416;2023-04-15T10:04:20;33.60;48.90
25753;DHT22;13600;50.816;4.416;2023-04-15T10:06:46;33.10;47.70
25753;DHT22;13600;50.816;4.416;2023-04-15T10:09:11;33.30;48.50
25753;DHT22;13600;50.816;4.416;2023-04-15T10:11:37;31.80;49.10
25753;DHT22;13600;50.816;4.416;2023-04-15T10:14:03;31.40;49.70
25753;DHT22;13600;50.816;4.416;2023-04-15T10:16:30;30.50;49.60
25753;DHT22;13600;50.816;4.416;2023-04-15T10:18:57;30.30;49.50
25753;DHT22;13600;50.816;4.416;2023-04-15T10:21:25;30.10;50.30
25753;DHT22;13600;50.816;4.416;2023-04-15T10:23:53;30.40;51.10
25753;DHT22;13600;50.816;4.416;2023-04-15T10:26:18;32.00;49.50
25753;DHT22;13600;50.816;4.416;2023-04-15T10:28:44;31.50;48.90
25753;DHT22;13600;50.816;4.416;2023-04-15T10:31:11;32.00;47.50
25753;DHT22;13600;50.816;4.416;2023-04-15T10:33:40;32.70;47.70
25753;DHT22;13600;50.816;4.416;2023-04-15T10:36:07;33.30;47.70
25753;DHT22;13600;50.816;4.416;2023-04-15T10:38:33;32.80;46.60
25753;DHT22;13600;50.816;4.416;2023-04-15T10:43:38;31.30;46.70
25753;DHT22;13600;50.816;4.416;2023-04-15T10:46:05;31.10;47.50
25753;DHT22;13600;50.816;4.416;2023-04-15T10:48:31;31.10;48.40
25753;DHT22;13600;50.816;4.416;2023-04-15T10:50:56;31.70;47.90
25753;DHT22;13600;50.816;4.416;2023-04-15T10:53:26;31.10;48.20
25753;DHT22;13600;50.816;4.416;2023-04-15T10:55:52;31.00;47.60
25753;DHT22;13600;50.816;4.416;2023-04-15T10:58:17;31.00;47.20
25753;DHT22;13600;50.816;4.416;2023-04-15T11:00:43;32.00;47.10
25753;DHT22;13600;50.816;4.416;2023-04-15T11:03:14;33.10;45.50
25753;DHT22;13600;50.816;4.416;2023-04-15T11:08:05;32.00;44.10
25753;DHT22;13600;50.816;4.416;2023-04-15T11:12:57;31.60;42.70
25753;DHT22;13600;50.816;4.416;2023-04-15T11:17:52;32.70;41.80
25753;DHT22;13600;50.816;4.416;2023-04-15T11:20:18;33.80;41.60
25753;DHT22;13600;50.816;4.416;2023-04-15T11:22:47;33.60;36.20
25753;DHT22;13600;50.816;4.416;2023-04-15T11:25:26;33.00;38.30
25753;DHT22;13600;50.816;4.416;2023-04-15T11:27:52;33.60;39.40
25753;DHT22;13600;50.816;4.416;2023-04-15T11:30:22;33.00;39.70
25753;DHT22;13600;50.816;4.416;2023-04-15T11:32:48;32.70;40.00
25753;DHT22;13600;50.816;4.416;2023-04-15T11:35:17;32.50;40.20
25753;DHT22;13600;50.816;4.416;2023-04-15T11:37:43;33.60;40.00
25753;DHT22;13600;50.816;4.416;2023-04-15T11:40:09;34.80;40.00
25753;DHT22;13600;50.816;4.416;2023-04-15T11:42:35;35.00;37.20
25753;DHT22;13600;50.816;4.416;2023-04-15T11:45:07;35.30;36.90
25753;DHT22;13600;50.816;4.416;2023-04-15T11:47:36;34.40;35.40
25753;DHT22;13600;50.816;4.416;2023-04-15T11:50:19;34.30;36.90
25753;DHT22;13600;50.816;4.416;2023-04-15T11:52:52;32.50;37.20
25753;DHT22;13600;50.816;4.416;2023-04-15T11:55:18;32.30;37.10
25753;DHT22;13600;50.816;4.416;2023-04-15T11:57:43;32.10;37.30
25753;DHT22;13600;50.816;4.416;2023-04-15T12:00:09;32.20;37.90
25753;DHT22;13600;50.816;4.416;2023-04-15T12:02:37;32.90;37.80
25753;DHT22;13600;50.816;4.416;2023-04-15T12:05:03;32.70;35.70
25753;DHT22;13600;50.816;4.416;2023-04-15T12:07:29;32.00;36.70
25753;DHT22;13600;50.816;4.416;2023-04-15T12:09:55;32.70;37.30
25753;DHT22;13600;50.816;4.416;2023-04-15T12:12:21;32.90;36.40
25753;DHT22;13600;50.816;4.416;2023-04-15T12:14:50;32.00;38.80
25753;DHT22;13600;50.816;4.416;2023-04-15T12:17:16;30.60;38.20
25753;DHT22;13600;50.816;4.416;2023-04-15T12:19:41;30.20;39.40
25753;DHT22;13600;50.816;4.416;2023-04-15T12:22:08;30.80;39.30
25753;DHT22;13600;50.816;4.416;2023-04-15T12:24:35;32.60;39.60
25753;DHT22;13600;50.816;4.416;2023-04-15T12:27:01;33.40;38.00
25753;DHT22;13600;50.816;4.416;2023-04-15T12:29:28;33.20;37.10
25753;DHT22;13600;50.816;4.416;2023-04-15T12:32:15;32.40;34.80
25753;DHT22;13600;50.816;4.416;2023-04-15T12:34:42;33.40;36.20
25753;DHT22;13600;50.816;4.416;2023-04-15T12:37:09;32.60;37.00
25753;DHT22;13600;50.816;4.416;2023-04-15T12:39:36;34.20;36.70
25753;DHT22;13600;50.816;4.416;2023-04-15T12:42:02;35.60;35.80
25753;DHT22;13600;50.816;4.416;2023-04-15T12:44:29;34.10;32.70
25753;DHT22;13600;50.816;4.416;2023-04-15T12:46:55;33.30;35.30
25753;DHT22;13600;50.816;4.416;2023-04-15T12:49:21;33.40;35.40
25753;DHT22;13600;50.816;4.416;2023-04-15T12:51:54;32.60;35.40
25753;DHT22;13600;50.816;4.416;2023-04-15T12:54:20;31.90;36.30
25753;DHT22;13600;50.816;4.416;2023-04-15T12:56:46;33.10;36.40
25753;DHT22;13600;50.816;4.416;2023-04-15T12:59:12;33.20;35.50
25753;DHT22;13600;50.816;4.416;2023-04-15T13:01:38;34.00;35.70
25753;DHT22;13600;50.816;4.416;2023-04-15T13:04:04;34.00;35.50
25753;DHT22;13600;50.816;4.416;2023-04-15T13:06:30;32.50;34.50
25753;DHT22;13600;50.816;4.416;2023-04-15T13:09:00;31.70;36.70
25753;DHT22;13600;50.816;4.416;2023-04-15T13:11:28;32.50;36.20
25753;DHT22;13600;50.816;4.416;2023-04-15T13:13:55;32.90;36.90
25753;DHT22;13600;50.816;4.416;2023-04-15T13:16:21;34.00;35.70
25753;DHT22;13600;50.816;4.416;2023-04-15T13:18:48;33.20;35.40
25753;DHT22;13600;50.816;4.416;2023-04-15T13:21:13;33.10;35.00
25753;DHT22;13600;50.816;4.416;2023-04-15T13:23:40;31.20;35.40
25753;DHT22;13600;50.816;4.416;2023-04-15T13:26:05;30.10;37.70
25753;DHT22;13600;50.816;4.416;2023-04-15T13:28:31;30.50;38.70
25753;DHT22;13600;50.816;4.416;2023-04-15T13:30:56;31.90;38.30
25753;DHT22;13600;50.816;4.416;2023-04-15T13:33:26;31.60;37.00
25753;DHT22;13600;50.816;4.416;2023-04-15T13:35:51;32.30;36.90
25753;DHT22;13600;50.816;4.416;2023-04-15T13:38:17;32.80;36.40
25753;DHT22;13600;50.816;4.416;2023-04-15T13:40:43;32.60;36.70
25753;DHT22;13600;50.816;4.416;2023-04-15T13:43:08;32.60;37.60
25753;DHT22;13600;50.816;4.416;2023-04-15T13:45:34;32.80;37.40
25753;DHT22;13600;50.816;4.416;2023-04-15T13:48:00;31.70;37.40
25753;DHT22;13600;50.816;4.416;2023-04-15T13:50:26;30.90;38.60
25753;DHT22;13600;50.816;4.416;2023-04-15T13:52:51;30.50;39.20
25753;DHT22;13600;50.816;4.416;2023-04-15T13:55:17;31.00;39.60
25753;DHT22;13600;50.816;4.416;2023-04-15T13:57:42;29.80;39.30
25753;DHT22;13600;50.816;4.416;2023-04-15T14:00:08;30.30;39.50
25753;DHT22;13600;50.816;4.416;2023-04-15T14:02:33;29.60;38.60
25753;DHT22;13600;50.816;4.416;2023-04-15T14:05:00;29.10;40.60
25753;DHT22;13600;50.816;4.416;2023-04-15T14:07:26;29.00;40.50
25753;DHT22;13600;50.816;4.416;2023-04-15T14:09:53;29.50;40.60
25753;DHT22;13600;50.816;4.416;2023-04-15T14:12:19;28.80;40.10
25753;DHT22;13600;50.816;4.416;2023-04-15T14:14:45;29.10;39.70
25753;DHT22;13600;50.816;4.416;2023-04-15T14:17:11;28.20;41.00
25753;DHT22;13600;50.816;4.416;2023-04-15T14:19:38;27.70;42.40
25753;DHT22;13600;50.816;4.416;2023-04-15T14:22:03;28.20;41.50
25753;DHT22;13600;50.816;4.416;2023-04-15T14:24:35;28.70;41.70
25753;DHT22;13600;50.816;4.416;2023-04-15T14:27:00;28.30;41.90
25753;DHT22;13600;50.816;4.416;2023-04-15T14:29:26;27.40;43.20
25753;DHT22;13600;50.816;4.416;2023-04-15T14:31:52;26.70;44.70
25753;DHT22;13600;50.816;4.416;2023-04-15T14:34:17;26.40;43.90
25753;DHT22;13600;50.816;4.416;2023-04-15T14:36:44;25.40;45.40
25753;DHT22;13600;50.816;4.416;2023-04-15T14:39:10;25.50;44.60
25753;DHT22;13600;50.816;4.416;2023-04-15T14:41:37;26.30;44.20
25753;DHT22;13600;50.816;4.416;2023-04-15T14:44:02;26.10;43.90
25753;DHT22;13600;50.816;4.416;2023-04-15T14:46:28;26.00;43.60
25753;DHT22;13600;50.816;4.416;2023-04-15T14:48:53;25.50;44.30
25753;DHT22;13600;50.816;4.416;2023-04-15T14:51:19;25.70;44.50
25753;DHT22;13600;50.816;4.416;2023-04-15T14:53:44;27.30;44.70
25753;DHT22;13600;50.816;4.416;2023-04-15T14:56:10;26.80;42.50
25753;DHT22;13600;50.816;4.416;2023-04-15T14:58:36;26.30;43.50
25753;DHT22;13600;50.816;4.416;2023-04-15T15:01:02;25.20;44.90
25753;DHT22;13600;50.816;4.416;2023-04-15T15:03:28;25.20;45.90
25753;DHT22;13600;50.816;4.416;2023-04-15T15:05:53;25.80;45.50
25753;DHT22;13600;50.816;4.416;2023-04-15T15:08:19;26.00;45.00
25753;DHT22;13600;50.816;4.416;2023-04-15T15:10:44;25.40;45.80
25753;DHT22;13600;50.816;4.416;2023-04-15T15:13:10;25.40;46.80
25753;DHT22;13600;50.816;4.416;2023-04-15T15:15:35;26.20;46.50
25753;DHT22;13600;50.816;4.416;2023-04-15T15:18:01;26.30;45.80
25753;DHT22;13600;50.816;4.416;2023-04-15T15:20:29;25.00;46.90
25753;DHT22;13600;50.816;4.416;2023-04-15T15:22:54;24.00;49.40
25753;DHT22;13600;50.816;4.416;2023-04-15T15:25:20;23.50;50.70
25753;DHT22;13600;50.816;4.416;2023-04-15T15:27:46;22.80;51.00
25753;DHT22;13600;50.816;4.416;2023-04-15T15:30:11;22.30;52.50
25753;DHT22;13600;50.816;4.416;2023-04-15T15:32:38;21.60;54.20
25753;DHT22;13600;50.816;4.416;2023-04-15T15:35:04;21.40;54.70